Time,TemperatureF,DewpointF,PressureIn,WindDirection,WindDirectionDegrees,WindSpeedMPH,WindSpeedGustMPH,Humidity,HourlyPrecipIn,Conditions,Clouds,dailyrainin,SoftwareType,DateUTC
2013-02-22 00:02:00,15.5,11.0,30.23,WSW,237,8.0,19.0,81,0.00,,,0.00,weatherlink.com 1.10,2013-02-22 07:02:00,
2013-02-22 00:17:00,15.4,10.0,30.23,West,272,6.0,16.0,80,0.00,,,0.00,weatherlink.com 1.10,2013-02-22 07:17:00,
2013-02-22 00:32:00,15.3,10.0,30.23,WSW,242,5.0,13.0,80,0.00,,,0.00,weatherlink.com 1.10,2013-02-22 07:32:00,
2013-02-22 00:47:00,15.4,10.0,30.24,West,275,4.0,19.0,80,0.00,,,0.00,weatherlink.com 1.10,2013-02-22 07:47:00,
2013-02-22 01:02:00,15.5,10.0,30.24,West,261,4.0,10.0,80,0.00,,,0.00,weatherlink.com 1.10,2013-02-22 08:02:00,
2013-02-22 01:17:00,15.7,11.0,30.23,WSW,250,6.0,13.0,80,0.00,,,0.00,weatherlink.com 1.10,2013-02-22 08:17:00,
2013-02-22 01:32:00,15.7,10.0,30.24,WNW,288,6.0,15.0,79,0.00,,,0.00,weatherlink.com 1.10,2013-02-22 08:32:00,
2013-02-22 01:47:00,15.5,10.0,30.24,WSW,242,9.0,22.0,79,0.00,,,0.00,weatherlink.com 1.10,2013-02-22 08:47:00,
2013-02-22 02:02:00,15.6,10.0,30.24,WSW,257,5.0,17.0,79,0.00,,,0.00,weatherlink.com 1.10,2013-02-22 09:02:00,
2013-02-22 02:17:00,15.6,10.0,30.23,West,263,13.0,18.0,78,0.00,,,0.00,weatherlink.com 1.10,2013-02-22 09:17:00,
2013-02-22 02:32:00,15.5,10.0,30.22,WSW,250,11.0,22.0,77,0.00,,,0.00,weatherlink.com 1.10,2013-02-22 09:32:00,
2013-02-22 02:47:00,15.6,10.0,30.22,West,276,14.0,22.0,77,0.00,,,0.00,weatherlink.com 1.10,2013-02-22 09:47:00,
2013-02-22 03:02:00,15.6,9.0,30.22,WSW,254,17.0,22.0,76,0.00,,,0.00,weatherlink.com 1.10,2013-02-22 10:02:00,
2013-02-22 03:17:00,15.4,9.0,30.22,SW,234,12.0,19.0,75,0.00,,,0.00,weatherlink.com 1.10,2013-02-22 10:17:00,
2013-02-22 03:32:00,15.3,8.0,30.21,WSW,254,14.0,24.0,74,0.00,,,0.00,weatherlink.com 1.10,2013-02-22 10:32:00,
2013-02-22 03:47:00,15.5,9.0,30.22,West,271,6.0,23.0,74,0.00,,,0.00,weatherlink.com 1.10,2013-02-22 10:47:00,
2013-02-22 04:02:00,15.8,10.0,30.22,West,266,15.0,25.0,76,0.00,,,0.00,weatherlink.com 1.10,2013-02-22 11:02:00,
2013-02-22 04:17:00,16.2,9.0,30.21,SW,231,22.0,28.0,72,0.00,,,0.00,weatherlink.com 1.10,2013-02-22 11:17:00,
2013-02-22 04:32:00,16.3,8.0,30.22,SW,232,17.0,26.0,71,0.00,,,0.00,weatherlink.com 1.10,2013-02-22 11:32:00,
2013-02-22 04:47:00,16.3,8.0,30.22,SW,222,22.0,26.0,69,0.00,,,0.00,weatherlink.com 1.10,2013-02-22 11:47:00,
2013-02-22 05:02:00,16.2,7.0,30.23,WSW,247,13.0,24.0,68,0.00,,,0.00,weatherlink.com 1.10,2013-02-22 12:02:00,
2013-02-22 05:17:00,15.9,7.0,30.24,West,265,5.0,22.0,68,0.00,,,0.00,weatherlink.com 1.10,2013-02-22 12:17:00,
2013-02-22 05:32:00,15.5,7.0,30.24,SW,218,11.0,24.0,69,0.00,,,0.00,weatherlink.com 1.10,2013-02-22 12:32:00,
2013-02-22 05:48:00,15.2,6.0,30.24,West,263,4.0,25.0,68,0.00,,,0.00,weatherlink.com 1.10,2013-02-22 12:48:00,
2013-02-22 06:03:00,15.2,6.0,30.25,WSW,244,7.0,18.0,68,0.00,,,0.00,weatherlink.com 1.10,2013-02-22 13:03:00,
2013-02-22 06:17:00,15.1,6.0,30.25,West,266,6.0,22.0,68,0.00,,,0.00,weatherlink.com 1.10,2013-02-22 13:17:00,
2013-02-22 06:32:00,15.0,6.0,30.25,WNW,283,8.0,24.0,67,0.00,,,0.00,weatherlink.com 1.10,2013-02-22 13:32:00,
2013-02-22 06:48:00,15.2,6.0,30.26,WSW,258,12.0,20.0,67,0.00,,,0.00,weatherlink.com 1.10,2013-02-22 13:48:00,
2013-02-22 07:02:00,15.3,6.0,30.27,West,267,5.0,18.0,67,0.00,,,0.00,weatherlink.com 1.10,2013-02-22 14:02:00,
2013-02-22 07:17:00,15.4,7.0,30.28,WNW,293,9.0,17.0,68,0.00,,,0.00,weatherlink.com 1.10,2013-02-22 14:17:00,
2013-02-22 07:32:00,15.8,6.0,30.28,West,281,6.0,15.0,66,0.00,,,0.00,weatherlink.com 1.10,2013-02-22 14:32:00,
2013-02-22 07:47:00,16.2,6.0,30.29,SW,232,13.0,19.0,65,0.00,,,0.00,weatherlink.com 1.10,2013-02-22 14:47:00,
2013-02-22 08:02:00,16.6,7.0,30.29,West,273,3.0,17.0,65,0.00,,,0.00,weatherlink.com 1.10,2013-02-22 15:02:00,
2013-02-22 08:17:00,17.3,7.0,30.30,WSW,252,7.0,16.0,64,0.00,,,0.00,weatherlink.com 1.10,2013-02-22 15:17:00,
2013-02-22 08:32:00,18.3,7.0,30.30,WSW,258,8.0,16.0,61,0.00,,,0.00,weatherlink.com 1.10,2013-02-22 15:32:00,
2013-02-22 08:47:00,20.0,8.0,30.30,SW,231,9.0,15.0,60,0.00,,,0.00,weatherlink.com 1.10,2013-02-22 15:47:00,
2013-02-22 09:02:00,21.7,8.0,30.29,WNW,282,7.0,14.0,56,0.00,,,0.00,weatherlink.com 1.10,2013-02-22 16:02:00,
2013-02-22 09:17:00,23.3,8.0,30.29,West,279,9.0,14.0,53,0.00,,,0.00,weatherlink.com 1.10,2013-02-22 16:17:00,
2013-02-22 09:33:00,24.4,9.0,30.29,WNW,298,2.0,13.0,52,0.00,,,0.00,weatherlink.com 1.10,2013-02-22 16:33:00,
2013-02-22 09:48:00,25.4,9.0,30.29,West,259,5.0,14.0,50,0.00,,,0.00,weatherlink.com 1.10,2013-02-22 16:48:00,
2013-02-22 10:03:00,26.0,9.0,30.30,WSW,254,4.0,12.0,49,0.01,,,0.01,weatherlink.com 1.10,2013-02-22 17:03:00,
2013-02-22 10:18:00,27.2,8.0,30.30,West,273,6.0,13.0,44,0.01,,,0.01,weatherlink.com 1.10,2013-02-22 17:18:00,
2013-02-22 10:33:00,29.0,12.0,30.29,NW,307,0.0,11.0,49,0.02,,,0.02,weatherlink.com 1.10,2013-02-22 17:33:00,
2013-02-22 10:48:00,28.0,15.0,30.29,NNE,27,1.0,9.0,58,0.02,,,0.02,weatherlink.com 1.10,2013-02-22 17:48:00,
2013-02-22 11:03:00,26.6,15.0,30.29,NE,55,4.0,5.0,61,0.01,,,0.02,weatherlink.com 1.10,2013-02-22 18:03:00,
2013-02-22 11:18:00,26.0,14.0,30.29,NE,44,4.0,8.0,62,0.01,,,0.02,weatherlink.com 1.10,2013-02-22 18:18:00,
2013-02-22 11:33:00,25.4,14.0,30.29,East,87,2.0,9.0,62,0.00,,,0.02,weatherlink.com 1.10,2013-02-22 18:33:00,
2013-02-22 11:48:00,25.3,15.0,30.29,NE,53,2.0,9.0,66,0.01,,,0.03,weatherlink.com 1.10,2013-02-22 18:48:00,
2013-02-22 12:03:00,24.1,15.0,30.29,NE,42,2.0,8.0,67,0.01,,,0.03,weatherlink.com 1.10,2013-02-22 19:03:00,
2013-02-22 12:18:00,23.5,14.0,30.28,East,94,3.0,8.0,68,0.01,,,0.03,weatherlink.com 1.10,2013-02-22 19:18:00,
2013-02-22 12:33:00,23.2,13.0,30.27,East,96,2.0,10.0,66,0.01,,,0.03,weatherlink.com 1.10,2013-02-22 19:33:00,
2013-02-22 12:48:00,22.1,13.0,30.27,East,90,1.0,8.0,67,0.00,,,0.03,weatherlink.com 1.10,2013-02-22 19:48:00,
2013-02-22 13:03:00,21.9,13.0,30.27,ESE,113,3.0,5.0,69,0.01,,,0.04,weatherlink.com 1.10,2013-02-22 20:03:00,
2013-02-22 13:18:00,21.9,14.0,30.26,NE,46,0.0,7.0,70,0.01,,,0.04,weatherlink.com 1.10,2013-02-22 20:18:00,
2013-02-22 13:33:00,21.5,13.0,30.26,ENE,59,1.0,5.0,71,0.02,,,0.05,weatherlink.com 1.10,2013-02-22 20:33:00,
2013-02-22 13:48:00,21.3,14.0,30.26,NE,42,0.0,6.0,72,0.02,,,0.05,weatherlink.com 1.10,2013-02-22 20:48:00,
2013-02-22 14:03:00,22.1,14.0,30.26,East,97,0.0,5.0,71,0.01,,,0.05,weatherlink.com 1.10,2013-02-22 21:03:00,
2013-02-22 14:18:00,22.0,14.0,30.26,NE,51,2.0,5.0,70,0.01,,,0.05,weatherlink.com 1.10,2013-02-22 21:18:00,
2013-02-22 14:33:00,22.0,14.0,30.25,ENE,73,0.0,3.0,72,0.00,,,0.05,weatherlink.com 1.10,2013-02-22 21:33:00,
2013-02-22 14:48:00,22.6,15.0,30.25,ENE,61,3.0,4.0,71,0.00,,,0.05,weatherlink.com 1.10,2013-02-22 21:48:00,
2013-02-22 15:03:00,22.8,9.0,30.25,NNW,328,3.0,11.0,56,0.00,,,0.05,weatherlink.com 1.10,2013-02-22 22:03:00,
2013-02-22 15:18:00,21.6,7.0,30.25,NW,311,4.0,15.0,54,0.00,,,0.05,weatherlink.com 1.10,2013-02-22 22:18:00,
2013-02-22 15:33:00,21.7,7.0,30.25,WSW,255,10.0,20.0,53,0.00,,,0.05,weatherlink.com 1.10,2013-02-22 22:33:00,
2013-02-22 15:48:00,22.7,7.0,30.25,WSW,257,4.0,15.0,51,0.00,,,0.05,weatherlink.com 1.10,2013-02-22 22:48:00,
2013-02-22 16:03:00,22.9,7.0,30.25,WNW,287,1.0,16.0,50,0.00,,,0.05,weatherlink.com 1.10,2013-02-22 23:03:00,
2013-02-22 16:18:00,22.0,6.0,30.25,NW,304,4.0,19.0,50,0.01,,,0.06,weatherlink.com 1.10,2013-02-22 23:18:00,
2013-02-22 16:33:00,20.7,5.0,30.25,SW,224,2.0,17.0,51,0.01,,,0.06,weatherlink.com 1.10,2013-02-22 23:33:00,
2013-02-22 16:48:00,19.3,5.0,30.25,West,271,3.0,17.0,54,0.01,,,0.06,weatherlink.com 1.10,2013-02-22 23:48:00,
2013-02-22 17:03:00,18.2,7.0,30.25,West,267,6.0,25.0,61,0.01,,,0.06,weatherlink.com 1.10,2013-02-23 00:03:00,
2013-02-22 17:18:00,17.2,5.0,30.25,West,267,4.0,20.0,58,0.00,,,0.06,weatherlink.com 1.10,2013-02-23 00:18:00,
2013-02-22 17:33:00,16.5,4.0,30.25,WNW,302,4.0,14.0,58,0.00,,,0.06,weatherlink.com 1.10,2013-02-23 00:33:00,
2013-02-22 17:48:00,16.0,4.0,30.25,WSW,254,13.0,21.0,59,0.00,,,0.06,weatherlink.com 1.10,2013-02-23 00:48:00,
2013-02-22 18:03:00,15.5,3.0,30.25,WNW,292,4.0,18.0,59,0.00,,,0.06,weatherlink.com 1.10,2013-02-23 01:03:00,
2013-02-22 18:18:00,15.1,3.0,30.25,West,275,12.0,26.0,58,0.00,,,0.06,weatherlink.com 1.10,2013-02-23 01:18:00,
2013-02-22 18:33:00,14.9,2.0,30.26,West,270,11.0,19.0,58,0.00,,,0.06,weatherlink.com 1.10,2013-02-23 01:33:00,
2013-02-22 18:48:00,14.7,3.0,30.26,West,265,6.0,19.0,59,0.00,,,0.06,weatherlink.com 1.10,2013-02-23 01:48:00,
2013-02-22 19:03:00,14.3,2.0,30.26,West,259,15.0,22.0,59,0.00,,,0.06,weatherlink.com 1.10,2013-02-23 02:03:00,
2013-02-22 19:18:00,14.2,3.0,30.26,West,266,17.0,26.0,60,0.00,,,0.06,weatherlink.com 1.10,2013-02-23 02:18:00,
2013-02-22 19:33:00,14.0,2.0,30.26,SW,223,21.0,24.0,59,0.00,,,0.06,weatherlink.com 1.10,2013-02-23 02:33:00,
2013-02-22 19:48:00,13.6,2.0,30.25,WNW,289,5.0,23.0,59,0.00,,,0.06,weatherlink.com 1.10,2013-02-23 02:48:00,
2013-02-22 20:03:00,13.5,2.0,30.25,WSW,258,12.0,21.0,59,0.00,,,0.06,weatherlink.com 1.10,2013-02-23 03:03:00,
2013-02-22 20:19:00,13.2,2.0,30.25,WSW,253,12.0,19.0,60,0.00,,,0.06,weatherlink.com 1.10,2013-02-23 03:19:00,
2013-02-22 20:34:00,13.2,1.0,30.23,NW,304,11.0,24.0,59,0.00,,,0.06,weatherlink.com 1.10,2013-02-23 03:34:00,
2013-02-22 20:49:00,13.5,1.0,30.24,WSW,258,19.0,25.0,58,0.00,,,0.06,weatherlink.com 1.10,2013-02-23 03:49:00,
2013-02-22 21:04:00,13.6,1.0,30.23,SW,232,22.0,27.0,58,0.00,,,0.06,weatherlink.com 1.10,2013-02-23 04:04:00,
2013-02-22 21:19:00,13.5,1.0,30.24,WSW,252,12.0,26.0,57,0.00,,,0.06,weatherlink.com 1.10,2013-02-23 04:19:00,
2013-02-22 21:34:00,13.6,1.0,30.22,WSW,257,13.0,28.0,58,0.00,,,0.06,weatherlink.com 1.10,2013-02-23 04:34:00,
2013-02-22 21:49:00,13.5,2.0,30.23,SW,229,16.0,29.0,59,0.00,,,0.06,weatherlink.com 1.10,2013-02-23 04:49:00,
2013-02-22 22:19:00,13.5,2.0,30.22,WSW,242,11.0,27.0,59,0.00,,,0.06,weatherlink.com 1.10,2013-02-23 05:19:00,
2013-02-22 22:34:00,13.4,2.0,30.21,NNW,342,4.0,28.0,60,0.00,,,0.06,weatherlink.com 1.10,2013-02-23 05:34:00,
2013-02-22 22:49:00,13.7,2.0,30.20,SW,226,12.0,35.0,59,0.00,,,0.06,weatherlink.com 1.10,2013-02-23 05:49:00,
2013-02-22 23:05:00,13.7,4.0,30.19,WNW,300,23.0,49.0,64,0.00,,,0.06,weatherlink.com 1.10,2013-02-23 06:05:00,
2013-02-22 23:19:00,13.6,3.0,30.18,SW,223,24.0,40.0,63,0.00,,,0.06,weatherlink.com 1.10,2013-02-23 06:19:00,
2013-02-22 23:34:00,13.5,2.0,30.17,West,275,17.0,41.0,61,0.00,,,0.06,weatherlink.com 1.10,2013-02-23 06:34:00,
2013-02-22 23:49:00,13.6,2.0,30.17,West,271,9.0,39.0,59,0.00,,,0.06,weatherlink.com 1.10,2013-02-23 06:49:00,